createdAt,value
2019-04-25T00:00:24.537Z,99445.35
2019-04-25T00:05:28.488Z,99462.83
2019-04-25T00:10:32.419Z,99474.58
2019-04-25T00:15:35.984Z,99494.68
2019-04-25T00:20:42.631Z,99495.45
2019-04-25T00:26:06.114Z,99501.64
2019-04-25T00:31:11.924Z,99516.16
2019-04-25T00:36:15.408Z,99518.78
2019-04-25T00:41:18.883Z,99516.16
2019-04-25T00:46:22.611Z,99524.35
2019-04-25T00:51:26.122Z,99528.20
2019-04-25T00:56:29.602Z,99538.88
2019-04-25T01:01:47.931Z,99552.02
2019-04-25T01:06:52.806Z,99549.07
2019-04-25T01:11:56.431Z,99543.34
2019-04-25T01:16:59.899Z,99532.38
2019-04-25T01:22:03.873Z,99528.03
2019-04-25T01:27:08.139Z,99544.73
2019-04-25T01:32:13.975Z,99540.42
2019-04-25T01:37:23.705Z,99547.83
2019-04-25T01:42:45.582Z,99543.04
2019-04-25T01:47:50.116Z,99542.88
2019-04-25T01:52:55.344Z,99551.22
2019-04-25T01:57:59.397Z,99558.80
2019-04-25T02:03:04.487Z,99569.77
2019-04-25T02:08:08.051Z,99573.16
2019-04-25T02:13:19.355Z,99593.25
2019-04-25T02:18:23.718Z,99589.85
2019-04-25T02:23:27.338Z,99595.42
2019-04-25T02:28:30.879Z,99597.26
2019-04-25T02:33:34.352Z,99614.73
2019-04-25T02:38:37.838Z,99617.35
2019-04-25T02:43:41.282Z,99621.52
2019-04-25T02:49:06.695Z,99625.39
2019-04-25T02:54:08.263Z,99628.34
2019-04-25T02:59:11.792Z,99621.22
2019-04-25T03:04:15.269Z,99615.83
2019-04-25T03:09:18.743Z,99618.44
2019-04-25T03:14:26.375Z,99628.18
2019-04-25T03:19:35.124Z,99626.01
2019-04-25T03:24:38.587Z,99635.58
2019-04-25T03:29:42.041Z,99636.97
2019-04-25T03:34:45.530Z,99636.36
2019-04-25T03:39:48.992Z,99638.81
2019-04-25T03:44:53.831Z,99642.37
2019-04-25T03:49:57.456Z,99651.33
2019-04-25T03:55:02.239Z,99666.47
2019-04-25T04:00:07.435Z,99681.95
2019-04-25T04:05:11.503Z,99687.17
2019-04-25T04:10:15.539Z,99681.47
2019-04-25T04:15:19.875Z,99688.87
2019-04-25T04:20:27.732Z,99695.66
2019-04-25T04:25:31.265Z,99703.22
2019-04-25T04:30:34.728Z,99714.80
2019-04-25T04:35:38.195Z,99718.53
2019-04-25T04:40:41.663Z,99726.87
2019-04-25T04:45:45.755Z,99730.09
2019-04-25T04:50:49.366Z,99740.45
2019-04-25T04:55:54.314Z,99744.45
2019-04-25T05:00:57.864Z,99749.87
2019-04-25T05:06:08.647Z,99740.75
2019-04-25T05:11:12.957Z,99750.49
2019-04-25T05:16:17.736Z,99753.89
2019-04-25T05:21:21.168Z,99764.23
2019-04-25T05:26:25.073Z,99762.40
2019-04-25T05:31:30.222Z,99765.49
2019-04-25T05:36:39.579Z,99758.88
2019-04-25T05:41:44.677Z,99771.56
2019-04-25T05:46:48.138Z,99774.22
2019-04-25T05:51:51.596Z,99786.47
2019-04-25T05:56:55.058Z,99785.23
2019-04-25T06:01:58.512Z,99801.88
2019-04-25T06:07:01.974Z,99798.97
2019-04-25T06:12:26.096Z,99803.63
2019-04-25T06:17:34.405Z,99812.17
2019-04-25T06:22:55.644Z,99819.94
2019-04-25T06:28:03.835Z,99820.14
2019-04-25T06:33:07.345Z,99830.25
2019-04-25T06:38:10.814Z,99837.62
2019-04-25T06:43:14.266Z,99840.80
2019-04-25T06:48:28.961Z,99847.44
2019-04-25T06:53:34.497Z,99846.55
2019-04-25T06:58:37.764Z,99849.80
2019-04-25T07:03:41.224Z,99866.72
2019-04-25T07:08:44.950Z,99859.60
2019-04-25T07:13:48.425Z,99859.88
2019-04-25T07:18:53.340Z,99857.80
2019-04-25T07:23:56.918Z,99869.50
2019-04-25T07:29:03.311Z,99871.31
2019-04-25T07:34:13.223Z,99859.70
2019-04-25T07:39:16.842Z,99860.30
2019-04-25T07:44:28.490Z,99874.43
2019-04-25T07:49:26.628Z,99874.50
2019-04-25T07:54:30.686Z,99874.42
2019-04-25T07:59:35.338Z,99880.83
2019-04-25T08:04:39.477Z,99890.44
2019-04-25T08:09:44.294Z,99890.96
2019-04-25T08:14:49.502Z,99887.64
2019-04-25T08:19:54.338Z,99885.39
2019-04-25T08:24:57.764Z,99881.57
2019-04-25T08:30:01.238Z,99884.27
2019-04-25T08:35:05.929Z,99884.97
2019-04-25T08:40:09.920Z,99894.84
2019-04-25T08:45:14.121Z,99893.19
2019-04-25T08:50:28.983Z,99888.77
2019-04-25T08:55:44.389Z,99873.97
2019-04-25T09:01:00.870Z,99865.98
2019-04-25T09:05:58.884Z,99866.16
2019-04-25T09:11:03.484Z,99871.59
2019-04-25T09:16:07.064Z,99854.48
2019-04-25T09:21:10.526Z,99856.22
2019-04-25T09:26:14.370Z,99854.39
2019-04-25T09:31:17.915Z,99848.40
2019-04-25T09:36:21.372Z,99846.54
2019-04-25T09:41:24.835Z,99839.16
2019-04-25T09:46:29.926Z,99832.20
2019-04-25T09:51:37.650Z,99835.33
2019-04-25T09:56:44.761Z,99829.94
2019-04-25T10:01:49.230Z,99826.73
2019-04-25T10:06:53.495Z,99823.48
2019-04-25T10:11:57.097Z,99833.39
2019-04-25T10:17:00.553Z,99829.56
2019-04-25T10:22:04.082Z,99830.52
2019-04-25T10:27:07.882Z,99819.22
2019-04-25T10:32:13.305Z,99807.66
2019-04-25T10:37:17.524Z,99802.23
2019-04-25T10:42:20.980Z,99806.41
2019-04-25T10:47:24.816Z,99802.58
2019-04-25T10:52:28.611Z,99795.80
2019-04-25T10:57:33.869Z,99799.53
2019-04-25T11:02:37.279Z,99795.19
2019-04-25T11:07:40.812Z,99785.11
2019-04-25T11:12:47.182Z,99770.33
2019-04-25T11:17:51.017Z,99772.84
2019-04-25T11:22:54.548Z,99765.59
2019-04-25T11:27:58.005Z,99760.72
2019-04-25T11:33:01.605Z,99761.50
2019-04-25T11:38:09.807Z,99762.59
2019-04-25T11:43:14.162Z,99756.41
2019-04-25T11:48:17.867Z,99748.24
2019-04-25T11:53:21.329Z,99752.92
2019-04-25T11:58:24.790Z,99741.23
2019-04-25T12:03:28.627Z,99741.09
2019-04-25T12:08:33.554Z,99736.07
2019-04-25T12:13:37.130Z,99727.28
2019-04-25T12:18:40.594Z,99716.94
2019-04-25T12:23:46.402Z,99722.05
2019-04-25T12:28:49.333Z,99692.55
2019-04-25T12:33:54.799Z,99699.49
2019-04-25T12:38:58.790Z,99696.27
2019-04-25T12:44:20.194Z,99695.38
2019-04-25T12:49:24.203Z,99691.52
2019-04-25T12:54:27.788Z,99684.11
2019-04-25T12:59:31.253Z,99681.50
2019-04-25T13:04:34.985Z,99672.09
2019-04-25T13:09:38.585Z,99668.84
2019-04-25T13:14:42.222Z,99664.39
2019-04-25T13:19:45.692Z,99661.61
2019-04-25T13:24:49.169Z,99658.04
2019-04-25T13:29:57.351Z,99654.81
2019-04-25T13:35:14.418Z,99647.24
2019-04-25T13:40:31.981Z,99644.63
2019-04-25T13:45:35.444Z,99632.10
2019-04-25T13:50:38.898Z,99629.17
2019-04-25T13:55:42.359Z,99630.45
2019-04-25T14:00:46.630Z,99616.09
2019-04-25T14:05:50.086Z,99612.05
2019-04-25T14:10:54.304Z,99600.64
2019-04-25T14:16:08.238Z,99593.84
2019-04-25T14:21:13.374Z,99591.56
2019-04-25T14:26:18.570Z,99588.91
2019-04-25T14:31:34.602Z,99573.93
2019-04-25T14:36:28.623Z,99570.08
2019-04-25T14:41:32.433Z,99563.12
2019-04-25T14:46:35.911Z,99560.34
2019-04-25T14:51:39.442Z,99550.76
2019-04-25T14:56:44.545Z,99562.06
2019-04-25T15:01:47.995Z,99553.84
2019-04-25T15:06:51.459Z,99546.88
2019-04-25T15:11:54.921Z,99561.58
2019-04-25T15:16:58.382Z,99537.14
2019-04-25T15:22:01.912Z,99540.09
2019-04-25T15:27:05.498Z,99530.34
2019-04-25T15:32:10.605Z,99531.89
2019-04-25T15:37:15.724Z,99531.28
2019-04-25T15:42:39.071Z,99526.49
2019-04-25T15:47:45.398Z,99533.45
2019-04-25T15:52:48.769Z,99519.08
2019-04-25T15:57:52.275Z,99516.46
2019-04-25T16:02:55.734Z,99516.30
2019-04-25T16:07:59.198Z,99511.50
2019-04-25T16:13:02.667Z,99512.28
2019-04-25T16:18:06.493Z,99515.84
2019-04-25T16:23:10.007Z,99505.01
2019-04-25T16:28:13.476Z,99509.34
2019-04-25T16:33:16.959Z,99507.95
2019-04-25T16:38:20.491Z,99505.50
2019-04-25T16:43:25.640Z,99507.83
2019-04-25T16:48:29.918Z,99510.13
2019-04-25T16:53:33.567Z,99501.20
2019-04-25T16:58:37.031Z,99508.05
2019-04-25T17:03:41.402Z,99497.23
2019-04-25T17:08:45.961Z,99495.55
2019-04-25T17:13:53.802Z,99484.70
2019-04-25T17:18:58.901Z,99488.13
2019-04-25T17:24:02.423Z,99482.41
2019-04-25T17:29:07.528Z,99487.52
2019-04-25T17:34:24.408Z,99486.45
2019-04-25T17:39:38.536Z,99482.12
2019-04-25T17:44:42.564Z,99475.60
2019-04-25T17:49:46.199Z,99475.15
2019-04-25T17:54:49.683Z,99473.76
2019-04-25T17:59:53.136Z,99467.11
2019-04-25T18:04:56.593Z,99465.11
2019-04-25T18:10:00.057Z,99463.09
2019-04-25T18:15:05.322Z,99464.48
2019-04-25T18:20:13.553Z,99459.70
2019-04-25T18:25:18.647Z,99457.66
2019-04-25T18:30:22.297Z,99456.27
2019-04-25T18:35:27.414Z,99459.05
2019-04-25T18:40:35.648Z,99459.70
2019-04-25T18:45:42.394Z,99458.30
2019-04-25T18:50:46.755Z,99458.92
2019-04-25T18:55:54.727Z,99460.31
2019-04-25T19:01:15.978Z,99461.55
2019-04-25T19:06:21.072Z,99468.51
2019-04-25T19:11:24.529Z,99470.52
2019-04-25T19:16:27.994Z,99470.52
2019-04-25T19:21:33.306Z,99459.21
2019-04-25T19:26:39.238Z,99461.84
2019-04-25T19:31:42.168Z,99455.94
2019-04-25T19:36:45.681Z,99458.73
2019-04-25T19:41:51.826Z,99454.25
2019-04-25T19:46:55.427Z,99456.88
2019-04-25T19:51:58.886Z,99454.09
2019-04-25T19:57:02.346Z,99458.11
2019-04-25T20:02:07.441Z,99451.92
2019-04-25T20:07:12.537Z,99457.33
2019-04-25T20:12:16.068Z,99453.93
2019-04-25T20:17:19.531Z,99444.02
2019-04-25T20:22:22.986Z,99445.86
2019-04-25T20:27:26.445Z,99441.69
2019-04-25T20:32:29.916Z,99431.77
2019-04-25T20:37:33.369Z,99427.59
2019-04-25T20:42:36.830Z,99422.03
2019-04-25T20:47:40.287Z,99420.64
2019-04-25T20:52:43.751Z,99414.16
2019-04-25T20:57:48.059Z,99405.19
2019-04-25T21:02:52.394Z,99411.20
2019-04-25T21:07:55.852Z,99402.85
2019-04-25T21:12:59.476Z,99409.33
2019-04-25T21:18:07.246Z,99402.37
2019-04-25T21:23:10.704Z,99402.20
2019-04-25T21:28:14.160Z,99401.40
2019-04-25T21:33:17.620Z,99395.53
2019-04-25T21:38:21.353Z,99394.27
2019-04-25T21:43:29.091Z,99391.49
2019-04-25T21:48:32.825Z,99394.92
2019-04-25T21:53:36.561Z,99393.37
2019-04-25T21:58:40.195Z,99381.29
2019-04-25T22:03:43.720Z,99382.52
2019-04-25T22:08:47.488Z,99379.90
2019-04-25T22:13:51.113Z,99385.30
2019-04-25T22:18:55.507Z,99374.94
2019-04-25T22:24:08.627Z,99372.61
2019-04-25T22:29:05.553Z,99362.70
2019-04-25T22:34:13.419Z,99365.66
2019-04-25T22:39:17.142Z,99366.27
2019-04-25T22:44:22.255Z,99361.31
2019-04-25T22:49:26.361Z,99345.55
2019-04-25T22:54:30.388Z,99345.55
2019-04-25T22:59:33.847Z,99338.58
2019-04-25T23:04:38.943Z,99347.09
2019-04-25T23:09:42.404Z,99343.70
2019-04-25T23:14:46.045Z,99336.57
2019-04-25T23:19:49.509Z,99327.44
2019-04-25T23:24:54.609Z,99316.92
2019-04-25T23:29:58.069Z,99310.41
2019-04-25T23:35:01.809Z,99310.41
2019-04-25T23:40:07.653Z,99304.84
2019-04-25T23:45:11.119Z,99307.02
2019-04-25T23:50:14.817Z,99305.46
2019-04-25T23:55:18.323Z,99300.67
